Time;durP1;ratioP1;P1;durP2;ratioP2;P2;SDS_P1;SDS_P2;PMS_P1;PMS_P2;Temp;Humidity;BMP_temperature;BMP_pressure;BME280_temperature;BME280_humidity;BME280_pressure;Samples;Min_cycle;Max_cycle;Signal;HPM_P1;HPM_P2
2023/08/27 00:01:13;;;;;;;11.10;9.60;;;;;;;;;;5002291;28;20053;-76
2023/08/27 00:03:39;;;;;;;10.70;9.60;;;;;;;;;;4969213;28;20057;-78
2023/08/27 00:06:05;;;;;;;11.00;9.90;;;;;;;;;;4998707;28;20046;-79
2023/08/27 00:08:31;;;;;;;11.45;9.90;;;;;;;;;;4998349;28;20132;-79
2023/08/27 00:10:58;;;;;;;11.02;10.00;;;;;;;;;;4998626;28;20088;-79
2023/08/27 00:13:24;;;;;;;11.10;10.00;;;;;;;;;;5016078;28;20050;-78
2023/08/27 00:15:50;;;;;;;11.32;10.20;;;;;;;;;;5016319;28;20436;-78
2023/08/27 00:18:16;;;;;;;12.40;10.02;;;;;;;;;;5015910;28;20042;-78
2023/08/27 00:20:42;;;;;;;11.25;10.10;;;;;;;;;;5014607;28;20179;-78
2023/08/27 00:23:10;;;;;;;11.30;10.20;;;;;;;;;;4997883;28;20088;-78
2023/08/27 00:25:36;;;;;;;12.23;10.93;;;;;;;;;;4982376;28;20155;-79
2023/08/27 00:28:02;;;;;;;11.43;10.23;;;;;;;;;;5015681;28;20042;-79
2023/08/27 00:30:28;;;;;;;12.05;9.90;;;;;;;;;;5016501;28;20053;-80
2023/08/27 00:32:54;;;;;;;11.05;9.93;;;;;;;;;;4997836;28;20042;-79
2023/08/27 00:35:20;;;;;;;10.77;9.73;;;;;;;;;;4998193;28;20045;-79
2023/08/27 00:37:46;;;;;;;9.93;8.93;;;;;;;;;;4996827;28;20046;-77
2023/08/27 00:40:12;;;;;;;10.38;9.38;;;;;;;;;;4998020;28;20066;-78
2023/08/27 00:42:38;;;;;;;10.90;9.80;;;;;;;;;;4997778;28;20054;-76
2023/08/27 00:45:05;;;;;;;10.02;9.13;;;;;;;;;;5015503;28;20132;-78
2023/08/27 00:47:31;;;;;;;12.90;9.55;;;;;;;;;;5014950;28;20046;-78
2023/08/27 00:49:58;;;;;;;11.15;9.90;;;;;;;;;;4997467;28;20133;-77
2023/08/27 00:52:24;;;;;;;10.43;9.43;;;;;;;;;;4997117;28;20056;-77
2023/08/27 00:54:51;;;;;;;11.90;10.68;;;;;;;;;;5014887;28;20494;-78
2023/08/27 00:57:18;;;;;;;11.02;9.85;;;;;;;;;;4997336;28;20054;-78
2023/08/27 00:59:44;;;;;;;10.65;9.48;;;;;;;;;;5015309;28;20089;-78
2023/08/27 01:02:11;;;;;;;11.90;10.68;;;;;;;;;;5014970;28;20052;-78
2023/08/27 01:04:37;;;;;;;11.05;9.95;;;;;;;;;;4997528;28;20061;-78
2023/08/27 01:07:11;;;;;;;11.63;10.30;;;;;;;;;;4997296;28;20089;-78
2023/08/27 01:09:41;;;;;;;11.95;10.65;;;;;;;;;;4981309;28;20513;-79
2023/08/27 01:12:29;;;;;;;10.73;9.63;;;;;;;;;;5015031;28;20064;-78
2023/08/27 01:14:58;;;;;;;10.98;9.70;;;;;;;;;;4997867;28;20050;-79
2023/08/27 01:17:25;;;;;;;10.73;9.63;;;;;;;;;;5014737;28;20054;-78
2023/08/27 01:19:52;;;;;;;10.95;9.85;;;;;;;;;;5014823;28;20152;-78
2023/08/27 01:22:18;;;;;;;10.75;9.65;;;;;;;;;;4996766;28;20052;-78
2023/08/27 01:24:44;;;;;;;11.23;10.13;;;;;;;;;;4996932;28;20041;-78
2023/08/27 01:27:20;;;;;;;11.45;9.18;;;;;;;;;;4996765;28;20056;-79
2023/08/27 01:29:45;;;;;;;;;;;;;;;;;;5015342;28;20490;-79
2023/08/27 01:32:15;;;;;;;12.20;10.18;;;;;;;;;;5014713;28;19972;-79
2023/08/27 01:34:42;;;;;;;10.20;9.15;;;;;;;;;;5016785;28;20045;-79
2023/08/27 01:37:08;;;;;;;10.55;9.55;;;;;;;;;;5000086;28;20465;-79
2023/08/27 01:39:34;;;;;;;10.55;9.45;;;;;;;;;;5016336;28;20517;-79
2023/08/27 01:42:00;;;;;;;11.05;9.63;;;;;;;;;;5034368;28;20050;-78
2023/08/27 01:44:27;;;;;;;10.40;9.35;;;;;;;;;;5016824;28;20045;-79
2023/08/27 01:46:53;;;;;;;10.10;9.10;;;;;;;;;;5016723;28;20085;-78
2023/08/27 01:49:19;;;;;;;9.82;8.82;;;;;;;;;;5033659;28;20050;-79
2023/08/27 01:51:45;;;;;;;9.85;8.85;;;;;;;;;;5016513;28;20394;-78
2023/08/27 01:54:11;;;;;;;9.60;8.38;;;;;;;;;;5015681;28;20091;-78
2023/08/27 01:56:38;;;;;;;10.45;9.15;;;;;;;;;;5034089;28;20132;-78
2023/08/27 01:59:04;;;;;;;9.50;8.48;;;;;;;;;;5033786;28;20049;-78
2023/08/27 02:01:30;;;;;;;9.50;8.60;;;;;;;;;;5016260;28;20060;-78
2023/08/27 02:03:56;;;;;;;9.48;8.57;;;;;;;;;;5033281;28;20145;-79
2023/08/27 02:06:22;;;;;;;11.75;9.23;;;;;;;;;;5015851;28;20103;-80
2023/08/27 02:08:48;;;;;;;10.23;9.07;;;;;;;;;;5015475;28;20045;-78
2023/08/27 02:11:14;;;;;;;10.45;9.35;;;;;;;;;;5033747;28;20122;-78
2023/08/27 02:13:40;;;;;;;11.52;9.32;;;;;;;;;;5015751;28;20390;-78
2023/08/27 02:16:06;;;;;;;10.05;8.93;;;;;;;;;;5015676;28;20140;-79
2023/08/27 02:18:32;;;;;;;10.70;9.60;;;;;;;;;;5015604;28;20473;-78
2023/08/27 02:20:58;;;;;;;10.00;9.00;;;;;;;;;;4999218;28;20042;-78
2023/08/27 02:23:24;;;;;;;10.52;9.27;;;;;;;;;;5013446;28;20216;-79
2023/08/27 02:25:51;;;;;;;10.15;9.25;;;;;;;;;;5033352;28;20439;-78
2023/08/27 02:28:17;;;;;;;12.85;9.93;;;;;;;;;;5032993;28;20034;-79
2023/08/27 02:30:50;;;;;;;11.07;9.90;;;;;;;;;;5033360;28;20045;-78
2023/08/27 02:33:16;;;;;;;10.55;9.55;;;;;;;;;;5032770;28;20068;-78
2023/08/27 02:35:42;;;;;;;10.90;9.82;;;;;;;;;;5015462;28;20497;-78
2023/08/27 02:38:08;;;;;;;11.40;10.30;;;;;;;;;;4998795;28;20081;-78
2023/08/27 02:40:35;;;;;;;10.05;9.13;;;;;;;;;;5033206;28;20479;-78
2023/08/27 02:43:01;;;;;;;11.23;10.05;;;;;;;;;;5032654;28;20546;-78
2023/08/27 02:45:27;;;;;;;10.63;9.57;;;;;;;;;;5033012;28;20076;-78
2023/08/27 02:47:53;;;;;;;11.85;10.02;;;;;;;;;;5032743;28;20099;-78
2023/08/27 02:50:19;;;;;;;11.10;10.00;;;;;;;;;;5032892;28;20049;-78
2023/08/27 02:52:45;;;;;;;11.55;10.45;;;;;;;;;;5032464;28;20406;-79
2023/08/27 02:55:11;;;;;;;10.68;9.68;;;;;;;;;;5033102;28;20075;-78
2023/08/27 02:57:37;;;;;;;11.15;10.05;;;;;;;;;;4998561;28;20050;-78
2023/08/27 03:00:04;;;;;;;11.93;10.70;;;;;;;;;;5032902;28;20048;-78
2023/08/27 03:02:30;;;;;;;11.35;10.18;;;;;;;;;;5014203;28;20061;-78
2023/08/27 03:04:56;;;;;;;11.57;10.35;;;;;;;;;;5032589;28;20053;-78
2023/08/27 03:07:23;;;;;;;12.38;9.73;;;;;;;;;;5014948;28;20056;-78
2023/08/27 03:09:49;;;;;;;12.20;9.57;;;;;;;;;;5015091;28;20049;-78
2023/08/27 03:12:15;;;;;;;11.23;10.10;;;;;;;;;;5031364;28;20415;-78
2023/08/27 03:14:41;;;;;;;11.48;10.27;;;;;;;;;;5032629;28;20079;-78
2023/08/27 03:17:07;;;;;;;11.77;10.57;;;;;;;;;;4996978;28;20508;-78
2023/08/27 03:19:33;;;;;;;11.43;10.18;;;;;;;;;;5013604;28;20091;-78
2023/08/27 03:22:00;;;;;;;11.35;10.25;;;;;;;;;;5014795;28;20055;-78
2023/08/27 03:24:26;;;;;;;11.43;10.32;;;;;;;;;;4998253;28;20053;-78
2023/08/27 03:26:52;;;;;;;13.05;10.13;;;;;;;;;;5027659;28;20491;-76
2023/08/27 03:29:18;;;;;;;11.70;10.50;;;;;;;;;;5017857;28;20077;-77
2023/08/27 03:31:44;;;;;;;11.65;10.45;;;;;;;;;;5016904;28;20049;-79
2023/08/27 03:34:10;;;;;;;11.68;10.52;;;;;;;;;;5012945;28;20092;-78
2023/08/27 03:36:37;;;;;;;11.63;9.70;;;;;;;;;;4995386;28;20103;-79
2023/08/27 03:39:04;;;;;;;11.27;10.10;;;;;;;;;;4994961;28;20048;-78
2023/08/27 03:41:30;;;;;;;13.43;10.05;;;;;;;;;;4995116;28;20057;-79
2023/08/27 03:43:56;;;;;;;11.60;10.13;;;;;;;;;;5012584;28;20049;-79
2023/08/27 03:46:22;;;;;;;11.38;10.27;;;;;;;;;;5012911;28;20054;-79
2023/08/27 03:48:48;;;;;;;12.02;10.75;;;;;;;;;;5012472;28;20077;-79
2023/08/27 03:51:14;;;;;;;11.32;10.18;;;;;;;;;;4995136;28;20124;-79
2023/08/27 03:53:41;;;;;;;11.05;9.95;;;;;;;;;;5012403;28;20121;-79
2023/08/27 03:56:07;;;;;;;11.73;10.52;;;;;;;;;;4995011;28;20088;-79
2023/08/27 03:58:33;;;;;;;11.85;10.57;;;;;;;;;;4994914;28;20046;-79
2023/08/27 04:00:59;;;;;;;13.30;10.68;;;;;;;;;;4995379;28;20050;-79
2023/08/27 04:03:26;;;;;;;12.10;10.88;;;;;;;;;;5012393;28;20461;-79
2023/08/27 04:05:52;;;;;;;11.95;10.57;;;;;;;;;;5012253;28;20064;-79
2023/08/27 04:08:18;;;;;;;10.77;9.57;;;;;;;;;;5009141;28;20438;-79
2023/08/27 04:10:51;;;;;;;11.00;9.75;;;;;;;;;;5010838;28;20573;-79
2023/08/27 04:13:18;;;;;;;11.57;10.38;;;;;;;;;;5012384;28;20085;-79
2023/08/27 04:15:44;;;;;;;11.52;10.32;;;;;;;;;;4999155;28;20407;-79
2023/08/27 04:18:10;;;;;;;11.10;10.00;;;;;;;;;;5015784;28;20053;-79
2023/08/27 04:20:36;;;;;;;12.02;10.00;;;;;;;;;;5016168;28;20490;-79
2023/08/27 04:23:02;;;;;;;12.82;10.90;;;;;;;;;;5015649;28;20501;-79
2023/08/27 04:25:29;;;;;;;11.43;10.25;;;;;;;;;;4996737;28;20053;-78
2023/08/27 04:27:56;;;;;;;11.02;9.98;;;;;;;;;;5015612;28;20046;-78
2023/08/27 04:30:22;;;;;;;12.93;10.80;;;;;;;;;;4998258;28;20046;-78
2023/08/27 04:32:48;;;;;;;10.82;9.73;;;;;;;;;;4997790;28;20462;-78
2023/08/27 04:35:14;;;;;;;13.32;10.60;;;;;;;;;;4998316;28;20376;-78
2023/08/27 04:37:40;;;;;;;11.45;10.25;;;;;;;;;;4998031;28;20045;-79
2023/08/27 04:40:07;;;;;;;12.07;10.40;;;;;;;;;;4998283;28;20053;-79
2023/08/27 04:42:33;;;;;;;10.95;9.85;;;;;;;;;;4997974;28;20062;-79
2023/08/27 04:44:59;;;;;;;11.88;10.45;;;;;;;;;;4997090;28;20145;-79
2023/08/27 04:47:25;;;;;;;14.38;10.93;;;;;;;;;;4997209;28;20439;-78
2023/08/27 04:49:51;;;;;;;11.25;10.10;;;;;;;;;;4997915;28;20403;-78
2023/08/27 04:52:17;;;;;;;11.02;9.80;;;;;;;;;;5015861;28;20398;-78
2023/08/27 04:54:43;;;;;;;11.65;10.23;;;;;;;;;;5015760;28;20340;-79
2023/08/27 04:57:09;;;;;;;12.35;10.32;;;;;;;;;;5015497;28;20403;-78
2023/08/27 04:59:35;;;;;;;11.65;10.25;;;;;;;;;;5014268;28;20046;-78
2023/08/27 05:02:02;;;;;;;12.50;10.48;;;;;;;;;;5015515;28;20041;-78
2023/08/27 05:04:29;;;;;;;11.85;10.23;;;;;;;;;;5014702;28;20506;-78
2023/08/27 05:06:55;;;;;;;10.82;9.60;;;;;;;;;;5013657;28;20081;-78
2023/08/27 05:09:21;;;;;;;12.10;10.90;;;;;;;;;;5014634;28;20133;-78
2023/08/27 05:11:47;;;;;;;11.90;10.70;;;;;;;;;;5015033;28;20050;-78
2023/08/27 05:14:13;;;;;;;11.05;9.90;;;;;;;;;;4997176;28;20049;-78
2023/08/27 05:16:39;;;;;;;11.57;10.02;;;;;;;;;;5014918;28;20437;-78
2023/08/27 05:19:05;;;;;;;13.13;9.75;;;;;;;;;;5014762;28;20050;-78
2023/08/27 05:21:31;;;;;;;11.13;9.93;;;;;;;;;;5014796;28;20119;-78
2023/08/27 05:23:57;;;;;;;10.80;9.70;;;;;;;;;;5013783;28;20041;-78
2023/08/27 05:26:23;;;;;;;10.77;9.50;;;;;;;;;;4999223;28;20052;-78
2023/08/27 05:28:49;;;;;;;11.75;10.00;;;;;;;;;;5034238;28;20486;-78
2023/08/27 05:31:15;;;;;;;14.48;9.23;;;;;;;;;;5034486;28;20049;-78
2023/08/27 05:33:41;;;;;;;10.98;9.02;;;;;;;;;;5032853;28;20371;-78
2023/08/27 05:36:08;;;;;;;11.77;10.13;;;;;;;;;;5032855;28;20068;-78
2023/08/27 05:38:34;;;;;;;10.73;8.73;;;;;;;;;;4999455;28;20454;-78
2023/08/27 05:41:00;;;;;;;10.38;8.70;;;;;;;;;;5034504;28;20037;-78
2023/08/27 05:43:26;;;;;;;10.48;8.80;;;;;;;;;;5016021;28;20045;-77
2023/08/27 05:45:52;;;;;;;9.52;8.57;;;;;;;;;;5016549;28;20041;-78
2023/08/27 05:48:18;;;;;;;9.50;8.50;;;;;;;;;;5033767;28;20049;-78
2023/08/27 05:50:44;;;;;;;10.13;8.25;;;;;;;;;;4997915;28;20053;-78
2023/08/27 05:53:11;;;;;;;9.10;8.20;;;;;;;;;;4997978;28;20320;-78
2023/08/27 05:55:37;;;;;;;8.98;8.07;;;;;;;;;;5032048;28;20049;-79
2023/08/27 05:58:03;;;;;;;10.95;7.80;;;;;;;;;;5031385;28;20107;-79
2023/08/27 06:00:30;;;;;;;10.35;8.10;;;;;;;;;;5032139;28;20041;-79
2023/08/27 06:02:56;;;;;;;9.38;8.23;;;;;;;;;;5014753;28;20045;-79
2023/08/27 06:05:22;;;;;;;11.30;8.00;;;;;;;;;;5016254;28;20073;-79
2023/08/27 06:07:48;;;;;;;9.60;7.80;;;;;;;;;;5015738;28;20061;-79
2023/08/27 06:10:14;;;;;;;9.35;8.07;;;;;;;;;;5033537;28;20426;-78
2023/08/27 06:12:40;;;;;;;8.93;8.00;;;;;;;;;;5033285;28;20052;-78
2023/08/27 06:15:07;;;;;;;8.40;7.50;;;;;;;;;;5033786;28;20049;-80
2023/08/27 06:17:33;;;;;;;8.80;7.90;;;;;;;;;;5015441;28;20107;-79
2023/08/27 06:19:59;;;;;;;9.00;7.95;;;;;;;;;;5016134;28;20510;-77
2023/08/27 06:22:25;;;;;;;9.25;7.93;;;;;;;;;;5015152;28;20200;-77
2023/08/27 06:24:51;;;;;;;10.35;7.50;;;;;;;;;;5015628;28;20069;-78
2023/08/27 06:27:17;;;;;;;8.68;7.82;;;;;;;;;;5005891;28;20470;-79
2023/08/27 06:29:45;;;;;;;10.20;7.88;;;;;;;;;;4996644;28;20042;-79
2023/08/27 06:32:11;;;;;;;9.82;7.82;;;;;;;;;;4979430;28;20049;-79
2023/08/27 06:34:38;;;;;;;9.75;7.72;;;;;;;;;;4995872;28;20053;-79
2023/08/27 06:37:04;;;;;;;10.27;8.43;;;;;;;;;;5012718;28;20045;-79
2023/08/27 06:39:30;;;;;;;10.73;8.18;;;;;;;;;;5013161;28;20052;-80
2023/08/27 06:41:56;;;;;;;10.55;7.60;;;;;;;;;;4995826;28;20113;-79
2023/08/27 06:44:22;;;;;;;8.50;7.57;;;;;;;;;;4993747;28;20049;-79
2023/08/27 06:46:48;;;;;;;9.38;7.70;;;;;;;;;;4993448;28;20073;-79
2023/08/27 06:49:14;;;;;;;13.07;7.93;;;;;;;;;;5010118;28;20057;-78
2023/08/27 06:51:40;;;;;;;11.25;7.95;;;;;;;;;;4996000;28;20383;-79
2023/08/27 06:54:06;;;;;;;8.38;7.45;;;;;;;;;;5017805;28;20042;-77
2023/08/27 06:56:32;;;;;;;10.05;6.90;;;;;;;;;;4998449;28;20602;-79
2023/08/27 06:58:58;;;;;;;8.65;7.18;;;;;;;;;;4994349;28;20517;-79
2023/08/27 07:01:24;;;;;;;11.32;8.20;;;;;;;;;;5012225;28;20402;-78
2023/08/27 07:03:51;;;;;;;8.13;6.80;;;;;;;;;;5012632;28;20080;-79
2023/08/27 07:06:17;;;;;;;14.63;6.75;;;;;;;;;;5013630;28;20050;-78
2023/08/27 07:08:43;;;;;;;9.30;6.88;;;;;;;;;;4995382;28;20041;-78
2023/08/27 07:11:09;;;;;;;8.40;6.40;;;;;;;;;;4995960;28;20132;-79
2023/08/27 07:13:35;;;;;;;9.23;5.78;;;;;;;;;;5012130;28;20042;-77
2023/08/27 07:16:02;;;;;;;8.60;5.90;;;;;;;;;;5011791;28;20050;-78
2023/08/27 07:18:29;;;;;;;7.93;4.93;;;;;;;;;;5012628;28;20505;-78
2023/08/27 07:20:55;;;;;;;8.05;5.40;;;;;;;;;;4995667;28;20054;-78
2023/08/27 07:23:21;;;;;;;8.52;4.90;;;;;;;;;;4995029;28;20471;-78
2023/08/27 07:25:47;;;;;;;5.93;4.50;;;;;;;;;;4995659;28;20042;-78
2023/08/27 07:28:13;;;;;;;5.55;4.15;;;;;;;;;;5012580;28;20045;-79
2023/08/27 07:30:39;;;;;;;5.72;3.90;;;;;;;;;;4994402;28;20045;-78
2023/08/27 07:33:06;;;;;;;5.55;3.95;;;;;;;;;;4989891;28;20398;-78
2023/08/27 07:35:32;;;;;;;6.15;4.15;;;;;;;;;;5014668;28;20049;-78
2023/08/27 07:37:59;;;;;;;7.32;3.90;;;;;;;;;;5032184;28;20121;-78
2023/08/27 07:40:25;;;;;;;7.15;3.90;;;;;;;;;;5032719;28;20041;-79
2023/08/27 07:42:51;;;;;;;5.10;3.65;;;;;;;;;;5014278;28;20052;-79
2023/08/27 07:45:17;;;;;;;6.40;3.70;;;;;;;;;;5014597;28;20042;-79
2023/08/27 07:47:43;;;;;;;5.28;3.65;;;;;;;;;;5033422;28;20120;-78
2023/08/27 07:50:09;;;;;;;6.72;3.90;;;;;;;;;;5036514;28;20049;-79
2023/08/27 07:52:35;;;;;;;5.53;3.60;;;;;;;;;;5036342;28;20045;-79
2023/08/27 07:55:03;;;;;;;6.20;3.45;;;;;;;;;;5036582;28;20057;-80
2023/08/27 07:57:29;;;;;;;7.40;3.75;;;;;;;;;;5036921;28;20068;-79
2023/08/27 07:59:55;;;;;;;6.70;3.90;;;;;;;;;;5037293;28;20490;-79
2023/08/27 08:02:21;;;;;;;6.18;3.17;;;;;;;;;;5018946;28;20202;-79
2023/08/27 08:04:48;;;;;;;6.25;3.47;;;;;;;;;;5035958;28;20055;-79
2023/08/27 08:07:14;;;;;;;5.25;3.45;;;;;;;;;;5035948;28;20390;-79
2023/08/27 08:09:40;;;;;;;5.55;3.67;;;;;;;;;;5018631;28;20041;-79
2023/08/27 08:12:07;;;;;;;5.35;3.40;;;;;;;;;;5036084;28;20041;-79
2023/08/27 08:14:33;;;;;;;7.40;3.80;;;;;;;;;;5035775;28;20041;-79
2023/08/27 08:16:59;;;;;;;7.43;3.55;;;;;;;;;;5001928;28;20048;-79
2023/08/27 08:19:25;;;;;;;6.00;3.53;;;;;;;;;;5035712;28;20046;-79
2023/08/27 08:21:51;;;;;;;6.40;3.60;;;;;;;;;;5018320;28;20121;-79
2023/08/27 08:24:17;;;;;;;5.32;3.55;;;;;;;;;;5017733;28;20057;-79
2023/08/27 08:26:43;;;;;;;7.03;3.90;;;;;;;;;;5012962;28;20457;-79
2023/08/27 08:29:10;;;;;;;6.35;4.03;;;;;;;;;;5015852;28;20132;-79
2023/08/27 08:31:36;;;;;;;6.95;3.70;;;;;;;;;;5015724;28;20095;-79
2023/08/27 08:34:03;;;;;;;7.35;3.58;;;;;;;;;;5015288;28;20046;-80
2023/08/27 08:36:29;;;;;;;6.95;3.72;;;;;;;;;;5015868;28;20107;-79
2023/08/27 08:38:55;;;;;;;5.35;3.60;;;;;;;;;;4981575;28;20069;-79
2023/08/27 08:41:23;;;;;;;6.22;3.35;;;;;;;;;;5015923;28;20374;-79
2023/08/27 08:44:02;;;;;;;5.68;3.60;;;;;;;;;;4997394;28;20041;-79
2023/08/27 08:46:34;;;;;;;5.97;3.30;;;;;;;;;;4997735;28;20092;-78
2023/08/27 08:49:03;;;;;;;7.05;3.10;;;;;;;;;;5015179;28;20045;-79
2023/08/27 08:51:29;;;;;;;6.15;3.20;;;;;;;;;;5015139;28;20057;-79
2023/08/27 08:53:59;;;;;;;4.80;3.13;;;;;;;;;;4997272;28;20117;-79
2023/08/27 08:56:28;;;;;;;5.70;3.20;;;;;;;;;;4997507;28;20057;-79
2023/08/27 08:58:57;;;;;;;4.43;2.60;;;;;;;;;;5013982;28;20394;-79
2023/08/27 09:01:23;;;;;;;5.07;2.75;;;;;;;;;;4981492;28;20190;-79
2023/08/27 09:03:49;;;;;;;4.70;2.80;;;;;;;;;;4996904;28;20049;-80
2023/08/27 09:06:19;;;;;;;4.80;2.90;;;;;;;;;;4997490;28;20045;-79
2023/08/27 09:08:45;;;;;;;4.57;2.60;;;;;;;;;;5014736;28;20069;-79
2023/08/27 09:11:12;;;;;;;4.05;2.50;;;;;;;;;;5015140;28;20468;-80
2023/08/27 09:13:39;;;;;;;4.88;2.10;;;;;;;;;;5014639;28;20046;-79
2023/08/27 09:16:08;;;;;;;4.15;2.40;;;;;;;;;;5014963;28;20054;-79
2023/08/27 09:18:34;;;;;;;4.95;2.20;;;;;;;;;;4996875;28;20054;-78
2023/08/27 09:21:00;;;;;;;4.13;2.28;;;;;;;;;;4997504;28;20033;-78
2023/08/27 09:23:27;;;;;;;3.45;2.00;;;;;;;;;;5014019;28;20052;-78
2023/08/27 09:25:53;;;;;;;5.75;2.25;;;;;;;;;;5014888;28;20042;-79
2023/08/27 09:28:20;;;;;;;3.47;2.08;;;;;;;;;;5014008;28;20487;-78
2023/08/27 09:30:46;;;;;;;3.53;1.63;;;;;;;;;;5014698;28;20398;-79
2023/08/27 09:33:12;;;;;;;5.05;2.10;;;;;;;;;;5005893;28;20048;-79
2023/08/27 09:35:41;;;;;;;4.28;2.05;;;;;;;;;;5034306;28;20449;-79
2023/08/27 09:38:10;;;;;;;4.70;2.00;;;;;;;;;;5016476;28;20431;-79
2023/08/27 09:40:36;;;;;;;3.50;1.75;;;;;;;;;;5034219;28;20490;-79
2023/08/27 09:43:04;;;;;;;3.97;2.20;;;;;;;;;;5016807;28;20397;-80
2023/08/27 09:45:30;;;;;;;3.38;1.90;;;;;;;;;;5034290;28;20056;-80
2023/08/27 09:48:00;;;;;;;3.83;1.80;;;;;;;;;;5033440;28;20512;-80
2023/08/27 09:50:28;;;;;;;3.20;1.83;;;;;;;;;;5032509;28;20045;-79
2023/08/27 09:52:54;;;;;;;3.50;1.88;;;;;;;;;;5031988;28;20052;-79
2023/08/27 09:55:21;;;;;;;4.68;1.88;;;;;;;;;;5034255;28;20136;-79
2023/08/27 09:57:50;;;;;;;4.28;2.05;;;;;;;;;;5033699;28;20121;-79
2023/08/27 10:00:17;;;;;;;3.03;1.90;;;;;;;;;;5033022;28;20448;-79
2023/08/27 10:02:44;;;;;;;3.38;1.77;;;;;;;;;;5033455;28;20398;-79
2023/08/27 10:05:11;;;;;;;2.90;1.98;;;;;;;;;;5015522;28;20091;-79
2023/08/27 10:07:37;;;;;;;3.10;2.00;;;;;;;;;;5015878;28;20038;-79
2023/08/27 10:10:05;;;;;;;3.08;1.80;;;;;;;;;;5016242;28;20435;-79
2023/08/27 10:12:32;;;;;;;3.95;2.20;;;;;;;;;;5033376;28;20045;-79
2023/08/27 10:15:00;;;;;;;3.42;1.83;;;;;;;;;;5033793;28;20462;-78
2023/08/27 10:17:26;;;;;;;3.03;1.70;;;;;;;;;;5020025;28;20042;-77
2023/08/27 10:19:53;;;;;;;2.45;1.67;;;;;;;;;;5021925;28;20080;-77
2023/08/27 10:22:22;;;;;;;3.10;1.60;;;;;;;;;;5033654;28;20044;-79
2023/08/27 10:24:48;;;;;;;3.08;1.70;;;;;;;;;;5033830;28;20099;-80
2023/08/27 10:27:15;;;;;;;2.78;1.45;;;;;;;;;;5024217;28;20048;-79
2023/08/27 10:29:41;;;;;;;4.22;1.60;;;;;;;;;;4996275;28;20064;-80
2023/08/27 10:32:08;;;;;;;2.67;1.50;;;;;;;;;;4978785;28;20049;-79
2023/08/27 10:34:34;;;;;;;2.42;1.60;;;;;;;;;;4995124;28;20045;-79
2023/08/27 10:37:04;;;;;;;3.90;1.50;;;;;;;;;;5012434;28;20081;-80
2023/08/27 10:39:31;;;;;;;2.40;1.40;;;;;;;;;;4996120;28;20050;-79
2023/08/27 10:41:57;;;;;;;2.17;1.40;;;;;;;;;;4995886;28;20041;-80
2023/08/27 10:44:23;;;;;;;3.00;1.40;;;;;;;;;;4995625;28;20042;-80
2023/08/27 10:47:13;;;;;;;3.95;1.60;;;;;;;;;;5012098;28;20065;-79
2023/08/27 10:49:41;;;;;;;2.88;1.30;;;;;;;;;;5013179;28;20057;-79
2023/08/27 10:52:14;;;;;;;2.08;1.25;;;;;;;;;;5012176;28;20049;-80
2023/08/27 10:54:40;;;;;;;3.10;1.52;;;;;;;;;;5013285;28;20045;-80
2023/08/27 10:57:17;;;;;;;2.35;1.30;;;;;;;;;;5013261;28;20409;-79
2023/08/27 10:59:43;;;;;;;2.42;1.30;;;;;;;;;;5013147;28;20482;-79
2023/08/27 11:02:09;;;;;;;2.38;1.40;;;;;;;;;;4995170;28;20038;-79
2023/08/27 11:04:40;;;;;;;3.60;1.50;;;;;;;;;;5010697;28;20057;-79
2023/08/27 11:07:10;;;;;;;3.53;1.70;;;;;;;;;;5011228;28;20045;-78
2023/08/27 11:09:55;;;;;;;4.03;1.50;;;;;;;;;;4995052;28;20054;-78
2023/08/27 11:12:21;;;;;;;5.07;1.90;;;;;;;;;;5012477;28;20045;-79
2023/08/27 11:14:47;;;;;;;2.65;1.75;;;;;;;;;;5011924;28;20030;-78
2023/08/27 11:17:22;;;;;;;4.80;1.98;;;;;;;;;;5011715;28;20081;-79
2023/08/27 11:19:48;;;;;;;4.03;2.37;;;;;;;;;;5011890;28;20133;-79
2023/08/27 11:22:14;;;;;;;4.78;2.30;;;;;;;;;;5010961;28;20046;-80
2023/08/27 11:24:53;;;;;;;5.03;2.17;;;;;;;;;;5010914;28;20125;-79
2023/08/27 11:27:21;;;;;;;4.53;2.08;;;;;;;;;;4994545;28;20049;-79
2023/08/27 11:29:48;;;;;;;5.20;2.20;;;;;;;;;;5012118;28;20042;-79
2023/08/27 11:32:14;;;;;;;3.10;1.90;;;;;;;;;;5011489;28;20409;-80
2023/08/27 11:34:42;;;;;;;3.50;1.92;;;;;;;;;;5012486;28;20545;-79
2023/08/27 11:37:08;;;;;;;4.45;2.30;;;;;;;;;;4994164;28;20100;-79
2023/08/27 11:39:35;;;;;;;5.18;2.00;;;;;;;;;;5012097;28;20046;-79
2023/08/27 11:42:01;;;;;;;3.88;2.05;;;;;;;;;;5012616;28;20068;-79
2023/08/27 11:44:27;;;;;;;4.82;2.00;;;;;;;;;;5012254;28;20042;-79
2023/08/27 11:47:02;;;;;;;4.50;2.30;;;;;;;;;;5012436;28;20069;-79
2023/08/27 11:49:31;;;;;;;5.53;2.35;;;;;;;;;;5012624;28;20042;-80
2023/08/27 11:51:58;;;;;;;3.50;2.00;;;;;;;;;;4994670;28;20097;-79
2023/08/27 11:54:30;;;;;;;2.83;1.80;;;;;;;;;;5012045;28;20092;-79
2023/08/27 11:56:57;;;;;;;3.15;1.60;;;;;;;;;;5012558;28;20049;-79
2023/08/27 11:59:25;;;;;;;3.08;1.50;;;;;;;;;;5012446;28;20216;-77
2023/08/27 12:01:51;;;;;;;2.13;1.40;;;;;;;;;;5012708;28;20042;-78
2023/08/27 12:04:17;;;;;;;4.35;1.48;;;;;;;;;;5011952;28;20144;-78
2023/08/27 12:06:52;;;;;;;4.95;1.25;;;;;;;;;;5012190;28;20052;-80
2023/08/27 12:09:23;;;;;;;3.80;1.52;;;;;;;;;;5012289;28;20056;-79
2023/08/27 12:11:49;;;;;;;3.15;1.40;;;;;;;;;;4994468;28;20115;-79
2023/08/27 12:14:21;;;;;;;3.22;1.42;;;;;;;;;;5012191;28;20038;-78
2023/08/27 12:16:47;;;;;;;3.20;1.50;;;;;;;;;;4994822;28;20406;-78
2023/08/27 12:19:13;;;;;;;3.72;1.50;;;;;;;;;;4994398;28;20131;-78
2023/08/27 12:21:58;;;;;;;1.98;1.27;;;;;;;;;;4994377;28;20153;-77
2023/08/27 12:24:31;;;;;;;3.85;1.30;;;;;;;;;;5009503;28;20405;-78
2023/08/27 12:27:00;;;;;;;1.50;1.10;;;;;;;;;;5011121;28;20049;-78
2023/08/27 12:29:27;;;;;;;1.20;1.10;;;;;;;;;;5011981;28;20402;-79
2023/08/27 12:31:54;;;;;;;3.20;1.08;;;;;;;;;;5012646;28;20431;-79
2023/08/27 12:34:31;;;;;;;1.63;1.10;;;;;;;;;;5012265;28;20073;-79
2023/08/27 12:36:57;;;;;;;2.05;1.20;;;;;;;;;;5015771;28;20068;-79
2023/08/27 12:39:23;;;;;;;4.75;1.30;;;;;;;;;;5015532;28;20132;-78
2023/08/27 12:41:49;;;;;;;2.38;1.27;;;;;;;;;;5015467;28;20077;-78
2023/08/27 12:44:15;;;;;;;2.90;1.20;;;;;;;;;;4997560;28;20077;-78
2023/08/27 12:46:42;;;;;;;4.88;1.30;;;;;;;;;;5015079;28;20104;-78
2023/08/27 12:49:08;;;;;;;5.32;1.27;;;;;;;;;;4997505;28;20046;-78
2023/08/27 12:51:34;;;;;;;2.22;1.10;;;;;;;;;;5015263;28;20125;-78
2023/08/27 12:54:00;;;;;;;3.38;1.27;;;;;;;;;;5014506;28;20092;-78
2023/08/27 12:56:26;;;;;;;2.25;1.33;;;;;;;;;;5013054;28;20049;-79
2023/08/27 12:58:52;;;;;;;2.13;1.30;;;;;;;;;;5013801;28;20100;-79
2023/08/27 13:01:18;;;;;;;1.55;1.23;;;;;;;;;;5014085;28;20046;-78
2023/08/27 13:03:44;;;;;;;3.17;1.20;;;;;;;;;;5011947;28;20498;-78
2023/08/27 13:06:10;;;;;;;2.42;1.20;;;;;;;;;;5012761;28;20057;-79
2023/08/27 13:08:36;;;;;;;2.08;1.20;;;;;;;;;;4995885;28;20395;-79
2023/08/27 13:11:03;;;;;;;1.55;1.02;;;;;;;;;;5014813;28;20054;-78
2023/08/27 13:13:30;;;;;;;2.13;1.10;;;;;;;;;;5013402;28;20052;-78
2023/08/27 13:15:58;;;;;;;2.22;1.20;;;;;;;;;;5014953;28;20092;-78
2023/08/27 13:18:24;;;;;;;2.17;1.33;;;;;;;;;;5014327;28;20125;-79
2023/08/27 13:20:50;;;;;;;2.33;1.17;;;;;;;;;;5014818;28;20057;-79
2023/08/27 13:23:16;;;;;;;2.35;1.30;;;;;;;;;;4996702;28;20104;-79
2023/08/27 13:25:42;;;;;;;2.00;1.20;;;;;;;;;;5013918;28;20049;-79
2023/08/27 13:28:09;;;;;;;2.10;1.20;;;;;;;;;;4996593;28;20053;-78
2023/08/27 13:30:35;;;;;;;1.42;1.02;;;;;;;;;;5014915;28;20403;-78
2023/08/27 13:33:01;;;;;;;2.55;1.30;;;;;;;;;;5008315;28;20083;-78
2023/08/27 13:35:27;;;;;;;4.32;1.40;;;;;;;;;;5000985;28;20078;-78
2023/08/27 13:37:53;;;;;;;1.90;1.30;;;;;;;;;;5034314;28;20242;-78
2023/08/27 13:40:19;;;;;;;1.80;1.10;;;;;;;;;;5016743;28;20037;-79
2023/08/27 13:42:45;;;;;;;2.65;1.30;;;;;;;;;;5038331;28;20046;-77
2023/08/27 13:45:11;;;;;;;1.63;1.10;;;;;;;;;;5020807;28;20402;-77
2023/08/27 13:47:38;;;;;;;1.85;1.20;;;;;;;;;;5016647;28;20136;-78
2023/08/27 13:50:04;;;;;;;1.95;1.20;;;;;;;;;;5015085;28;20049;-78
2023/08/27 13:52:30;;;;;;;2.05;1.20;;;;;;;;;;5015240;28;20442;-79
2023/08/27 13:54:56;;;;;;;3.28;1.30;;;;;;;;;;5034152;28;20057;-79
2023/08/27 13:57:22;;;;;;;2.70;1.30;;;;;;;;;;5015345;28;20501;-78
2023/08/27 13:59:48;;;;;;;2.28;1.40;;;;;;;;;;5033601;28;20076;-78
2023/08/27 14:02:14;;;;;;;1.98;1.27;;;;;;;;;;5015930;28;20057;-78
2023/08/27 14:04:40;;;;;;;1.55;1.25;;;;;;;;;;5015864;28;20424;-78
2023/08/27 14:07:06;;;;;;;2.53;1.10;;;;;;;;;;5015887;28;20490;-79
2023/08/27 14:09:33;;;;;;;2.67;1.30;;;;;;;;;;5015083;28;20045;-78
2023/08/27 14:11:59;;;;;;;1.80;1.30;;;;;;;;;;5032531;28;20053;-78
2023/08/27 14:14:25;;;;;;;2.33;1.20;;;;;;;;;;5031659;28;20052;-78
2023/08/27 14:16:51;;;;;;;2.15;1.30;;;;;;;;;;5033349;28;20045;-78
2023/08/27 14:19:17;;;;;;;3.10;1.20;;;;;;;;;;5016698;28;20099;-79
2023/08/27 14:21:44;;;;;;;3.05;1.10;;;;;;;;;;5033920;28;20148;-79
2023/08/27 14:24:10;;;;;;;2.67;1.25;;;;;;;;;;5033357;28;20050;-78
2023/08/27 14:26:37;;;;;;;2.25;1.15;;;;;;;;;;5032604;28;20045;-78
2023/08/27 14:29:06;;;;;;;2.83;1.20;;;;;;;;;;4999410;28;20046;-78
2023/08/27 14:31:33;;;;;;;2.08;1.20;;;;;;;;;;5033556;28;20403;-78
2023/08/27 14:34:05;;;;;;;2.42;1.20;;;;;;;;;;5032953;28;20068;-78